Time;durP1;ratioP1;P1;durP2;ratioP2;P2;SDS_P1;SDS_P2;PMS_P1;PMS_P2;Temp;Humidity;BMP_temperature;BMP_pressure;BME280_temperature;BME280_humidity;BME280_pressure;Samples;Min_cycle;Max_cycle;Signal;HPM_P1;HPM_P2
2022/03/30 00:01:26;;;;;;;45.00;10.40;;;;;;;;;;5072440;28;20980;-67
2022/03/30 00:03:52;;;;;;;51.20;10.13;;;;;;;;;;5074578;28;20893;-68
2022/03/30 00:06:18;;;;;;;41.70;9.43;;;;;;;;;;5076208;28;20413;-68
2022/03/30 00:08:44;;;;;;;48.37;9.67;;;;;;;;;;5076173;28;20452;-68
2022/03/30 00:11:11;;;;;;;47.13;9.93;;;;;;;;;;5076280;28;20413;-68
2022/03/30 00:13:37;;;;;;;55.77;10.57;;;;;;;;;;5075043;28;20445;-68
2022/03/30 00:16:04;;;;;;;33.20;9.50;;;;;;;;;;5076167;28;20410;-66
2022/03/30 00:18:30;;;;;;;47.73;11.30;;;;;;;;;;5076041;28;20414;-68
2022/03/30 00:20:56;;;;;;;50.50;10.60;;;;;;;;;;5075980;28;20980;-68
2022/03/30 00:23:22;;;;;;;32.63;9.90;;;;;;;;;;5076106;28;20494;-68
2022/03/30 00:25:48;;;;;;;49.20;9.83;;;;;;;;;;5075986;28;20407;-69
2022/03/30 00:28:14;;;;;;;33.97;9.20;;;;;;;;;;5075880;28;20951;-68
2022/03/30 00:30:40;;;;;;;40.23;10.80;;;;;;;;;;5075911;28;20409;-68
2022/03/30 00:33:06;;;;;;;46.93;10.47;;;;;;;;;;5075980;28;20512;-68
2022/03/30 00:35:32;;;;;;;40.07;10.63;;;;;;;;;;5075869;28;20394;-68
2022/03/30 00:37:58;;;;;;;47.50;10.27;;;;;;;;;;5075765;28;20410;-68
2022/03/30 00:40:25;;;;;;;38.03;9.13;;;;;;;;;;5075269;28;21017;-68
2022/03/30 00:42:53;;;;;;;35.57;9.80;;;;;;;;;;5075560;28;20424;-67
2022/03/30 00:45:21;;;;;;;51.73;10.00;;;;;;;;;;5075672;28;20405;-67
2022/03/30 00:47:47;;;;;;;33.80;10.43;;;;;;;;;;5075601;28;20574;-68
2022/03/30 00:50:16;;;;;;;46.20;9.67;;;;;;;;;;5075620;28;20441;-67
2022/03/30 00:52:42;;;;;;;39.43;8.10;;;;;;;;;;5075554;28;20424;-66
2022/03/30 00:55:09;;;;;;;34.83;8.80;;;;;;;;;;5075479;28;20403;-66
2022/03/30 00:57:36;;;;;;;37.27;8.70;;;;;;;;;;5075422;28;20417;-66
2022/03/30 01:00:05;;;;;;;48.67;9.60;;;;;;;;;;5075193;28;20508;-66
2022/03/30 01:02:31;;;;;;;34.17;9.17;;;;;;;;;;5075330;28;20407;-65
2022/03/30 01:04:57;;;;;;;32.83;8.53;;;;;;;;;;5075199;28;20414;-66
2022/03/30 01:07:25;;;;;;;26.97;7.87;;;;;;;;;;5075488;28;20409;-66
2022/03/30 01:09:53;;;;;;;33.57;9.00;;;;;;;;;;5075118;28;20894;-66
2022/03/30 01:12:19;;;;;;;29.77;8.70;;;;;;;;;;5075236;28;20437;-66
2022/03/30 01:14:45;;;;;;;30.23;8.67;;;;;;;;;;5074278;28;20484;-65
2022/03/30 01:17:11;;;;;;;50.57;8.50;;;;;;;;;;5075052;28;20418;-65
2022/03/30 01:19:37;;;;;;;46.17;9.67;;;;;;;;;;5074935;28;20453;-65
2022/03/30 01:22:06;;;;;;;39.20;10.20;;;;;;;;;;5074931;28;20471;-66
2022/03/30 01:24:31;;;;;;;45.03;9.33;;;;;;;;;;5075165;28;20434;-66
2022/03/30 01:26:58;;;;;;;33.83;9.90;;;;;;;;;;5074845;28;20449;-66
2022/03/30 01:32:34;;;;;;;33.77;9.80;;;;;;;;;;5032690;28;20415;-65
2022/03/30 01:35:04;;;;;;;38.20;8.37;;;;;;;;;;5066364;28;20433;-66
2022/03/30 01:37:31;;;;;;;34.30;8.60;;;;;;;;;;5074841;28;20401;-67
2022/03/30 01:39:58;;;;;;;21.97;8.33;;;;;;;;;;5074462;28;20914;-68
2022/03/30 01:42:25;;;;;;;39.73;9.00;;;;;;;;;;5074752;28;20472;-68
2022/03/30 01:44:51;;;;;;;22.27;8.33;;;;;;;;;;5074276;28;20455;-67
2022/03/30 01:47:17;;;;;;;27.13;8.37;;;;;;;;;;5074397;28;20449;-68
2022/03/30 01:49:43;;;;;;;24.43;9.13;;;;;;;;;;5074482;28;20406;-68
2022/03/30 01:52:10;;;;;;;39.50;9.70;;;;;;;;;;5074327;28;20394;-65
2022/03/30 01:54:37;;;;;;;46.20;9.17;;;;;;;;;;5073082;28;20406;-66
2022/03/30 01:57:03;;;;;;;48.53;10.10;;;;;;;;;;5074196;28;20405;-66
2022/03/30 01:59:30;;;;;;;37.10;8.17;;;;;;;;;;5074086;28;20410;-67
2022/03/30 02:01:56;;;;;;;29.20;9.03;;;;;;;;;;5074363;28;20465;-66
2022/03/30 02:04:24;;;;;;;30.47;8.57;;;;;;;;;;5074056;28;20394;-67
2022/03/30 02:06:50;;;;;;;31.10;9.00;;;;;;;;;;5074009;28;20404;-67
2022/03/30 02:09:16;;;;;;;31.53;9.10;;;;;;;;;;5073993;28;20398;-66
2022/03/30 02:11:42;;;;;;;32.20;9.40;;;;;;;;;;5073977;28;20410;-67
2022/03/30 02:14:08;;;;;;;27.57;8.90;;;;;;;;;;5073911;28;20980;-67
2022/03/30 02:16:34;;;;;;;32.37;10.10;;;;;;;;;;5073876;28;20441;-68
2022/03/30 02:19:00;;;;;;;32.97;11.93;;;;;;;;;;5072643;28;20410;-68
2022/03/30 02:21:26;;;;;;;29.63;9.57;;;;;;;;;;5073626;28;20555;-69
2022/03/30 02:23:52;;;;;;;40.97;11.53;;;;;;;;;;5072526;28;20426;-67
2022/03/30 02:26:19;;;;;;;32.67;9.83;;;;;;;;;;5073128;28;20441;-68
2022/03/30 02:28:51;;;;;;;25.67;10.60;;;;;;;;;;5073480;28;20418;-67
2022/03/30 02:31:20;;;;;;;34.03;9.67;;;;;;;;;;5073728;28;20406;-68
2022/03/30 02:33:46;;;;;;;36.07;11.00;;;;;;;;;;5073751;28;20915;-68
2022/03/30 02:36:13;;;;;;;30.10;11.60;;;;;;;;;;5073775;28;20410;-68
2022/03/30 02:38:39;;;;;;;38.43;12.20;;;;;;;;;;5073614;28;20882;-68
2022/03/30 02:41:06;;;;;;;42.30;11.83;;;;;;;;;;5073491;28;20481;-68
2022/03/30 02:43:33;;;;;;;42.27;11.60;;;;;;;;;;5073549;28;20580;-68
2022/03/30 02:45:59;;;;;;;25.67;11.97;;;;;;;;;;5073512;28;20439;-68
2022/03/30 02:48:28;;;;;;;43.30;12.70;;;;;;;;;;5073795;28;20432;-68
2022/03/30 02:50:55;;;;;;;43.60;12.57;;;;;;;;;;5073769;28;20440;-68
2022/03/30 02:53:21;;;;;;;43.23;11.90;;;;;;;;;;5073413;28;20410;-67
2022/03/30 02:55:48;;;;;;;41.10;11.97;;;;;;;;;;5073400;28;20402;-67
2022/03/30 02:58:14;;;;;;;33.97;13.20;;;;;;;;;;5073356;28;20928;-68
2022/03/30 03:00:41;;;;;;;32.30;12.03;;;;;;;;;;5073272;28;20877;-68
2022/03/30 03:03:08;;;;;;;33.90;12.40;;;;;;;;;;5073545;28;20414;-67
2022/03/30 03:05:34;;;;;;;40.33;12.37;;;;;;;;;;5073368;28;20398;-68
2022/03/30 03:08:04;;;;;;;32.37;11.80;;;;;;;;;;5072010;28;20459;-68
2022/03/30 03:10:31;;;;;;;32.47;12.40;;;;;;;;;;5073291;28;20406;-67
2022/03/30 03:12:57;;;;;;;38.27;11.77;;;;;;;;;;5073303;28;20406;-67
2022/03/30 03:15:23;;;;;;;31.03;11.80;;;;;;;;;;5073329;28;20402;-68
2022/03/30 03:17:50;;;;;;;55.00;13.33;;;;;;;;;;5073300;28;20406;-68
2022/03/30 03:20:16;;;;;;;34.83;12.53;;;;;;;;;;5073152;28;20893;-68
2022/03/30 03:22:42;;;;;;;30.10;12.67;;;;;;;;;;5073317;28;20949;-67
2022/03/30 03:25:09;;;;;;;41.70;13.30;;;;;;;;;;5073252;28;20410;-68
2022/03/30 03:27:35;;;;;;;29.43;12.73;;;;;;;;;;5073114;28;20463;-68
2022/03/30 03:30:01;;;;;;;37.13;13.13;;;;;;;;;;5073092;28;20413;-67
2022/03/30 03:32:27;;;;;;;44.40;13.23;;;;;;;;;;5073067;28;20498;-68
2022/03/30 03:34:53;;;;;;;38.80;14.03;;;;;;;;;;5071752;28;20505;-68
2022/03/30 03:37:19;;;;;;;32.70;13.50;;;;;;;;;;5073084;28;20444;-67
2022/03/30 03:39:46;;;;;;;32.93;13.47;;;;;;;;;;5075139;28;20500;-67
2022/03/30 03:42:12;;;;;;;26.37;12.33;;;;;;;;;;5076801;28;20465;-68
2022/03/30 03:44:38;;;;;;;30.50;13.40;;;;;;;;;;5076806;28;20405;-68
2022/03/30 03:47:07;;;;;;;34.33;13.07;;;;;;;;;;5075497;28;20406;-67
2022/03/30 03:49:33;;;;;;;59.03;29.80;;;;;;;;;;5076756;28;20418;-67
2022/03/30 03:51:59;;;;;;;21.40;14.10;;;;;;;;;;5075288;28;20417;-68
2022/03/30 03:54:25;;;;;;;40.67;14.00;;;;;;;;;;5076684;28;20480;-68
2022/03/30 03:56:51;;;;;;;35.30;13.00;;;;;;;;;;5076516;28;20410;-68
2022/03/30 03:59:17;;;;;;;29.70;13.40;;;;;;;;;;5076455;28;20463;-68
2022/03/30 04:01:43;;;;;;;33.03;14.03;;;;;;;;;;5076373;28;20560;-67
2022/03/30 04:04:09;;;;;;;32.67;14.87;;;;;;;;;;5076480;28;20819;-67
2022/03/30 04:06:35;;;;;;;40.20;14.37;;;;;;;;;;5075100;28;20422;-68
2022/03/30 04:09:01;;;;;;;37.27;14.60;;;;;;;;;;5076313;28;20952;-67
2022/03/30 04:11:27;;;;;;;32.53;14.50;;;;;;;;;;5076287;28;20426;-67
2022/03/30 04:13:53;;;;;;;47.53;15.93;;;;;;;;;;5076440;28;20874;-67
2022/03/30 04:16:19;;;;;;;40.20;15.23;;;;;;;;;;5076247;28;20394;-67
2022/03/30 04:18:45;;;;;;;32.93;14.90;;;;;;;;;;5076136;28;20442;-67
2022/03/30 04:21:12;;;;;;;44.23;15.77;;;;;;;;;;5075839;28;20496;-67
2022/03/30 04:23:38;;;;;;;48.67;15.80;;;;;;;;;;5076022;28;20373;-67
2022/03/30 04:26:04;;;;;;;37.47;16.53;;;;;;;;;;5076010;28;20442;-67
2022/03/30 04:28:30;;;;;;;44.07;20.50;;;;;;;;;;5074668;28;20422;-67
2022/03/30 04:30:56;;;;;;;43.10;18.93;;;;;;;;;;5075983;28;20415;-67
2022/03/30 04:33:22;;;;;;;51.70;16.23;;;;;;;;;;5075882;28;20402;-67
2022/03/30 04:35:48;;;;;;;41.43;18.10;;;;;;;;;;5074578;28;20483;-67
2022/03/30 04:38:14;;;;;;;48.57;17.53;;;;;;;;;;5075733;28;20449;-67
2022/03/30 04:40:40;;;;;;;44.73;16.50;;;;;;;;;;5075448;28;20489;-67
2022/03/30 04:43:07;;;;;;;37.80;16.97;;;;;;;;;;5075664;28;20422;-67
2022/03/30 04:45:33;;;;;;;40.40;15.83;;;;;;;;;;5075665;28;20397;-67
2022/03/30 04:47:59;;;;;;;42.73;16.57;;;;;;;;;;5075631;28;20417;-67
2022/03/30 04:50:25;;;;;;;68.60;30.20;;;;;;;;;;5073198;28;20414;-68
2022/03/30 04:52:52;;;;;;;55.23;17.47;;;;;;;;;;5075504;28;20425;-67
2022/03/30 04:55:19;;;;;;;41.27;15.17;;;;;;;;;;5075546;28;20433;-67
2022/03/30 04:57:46;;;;;;;34.20;15.37;;;;;;;;;;5075491;28;20398;-67
2022/03/30 05:00:12;;;;;;;41.17;15.50;;;;;;;;;;5075267;28;20392;-67
2022/03/30 05:02:38;;;;;;;35.97;15.70;;;;;;;;;;5075308;28;20414;-68
2022/03/30 05:05:05;;;;;;;41.47;15.47;;;;;;;;;;5075434;28;20413;-68
2022/03/30 05:07:31;;;;;;;32.07;14.70;;;;;;;;;;5075268;28;20415;-68
2022/03/30 05:10:00;;;;;;;34.40;14.87;;;;;;;;;;5075207;28;20402;-67
2022/03/30 05:12:26;;;;;;;43.93;15.60;;;;;;;;;;5075133;28;20409;-67
2022/03/30 05:14:52;;;;;;;36.33;14.93;;;;;;;;;;5075222;28;20860;-67
2022/03/30 05:17:19;;;;;;;32.13;15.50;;;;;;;;;;5074286;28;20410;-67
2022/03/30 05:19:45;;;;;;;35.30;14.70;;;;;;;;;;5075107;28;20168;-69
2022/03/30 05:22:11;;;;;;;49.73;16.57;;;;;;;;;;5074838;28;20462;-68
2022/03/30 05:24:37;;;;;;;26.80;14.10;;;;;;;;;;5074865;28;20451;-70
2022/03/30 05:27:04;;;;;;;36.10;16.77;;;;;;;;;;5074836;28;20414;-69
2022/03/30 05:29:30;;;;;;;33.57;15.47;;;;;;;;;;5074989;28;20487;-70
2022/03/30 05:31:56;;;;;;;37.07;14.77;;;;;;;;;;5074779;28;20415;-69
2022/03/30 05:34:22;;;;;;;36.07;15.90;;;;;;;;;;5074971;28;20463;-72
2022/03/30 05:36:48;;;;;;;36.67;14.90;;;;;;;;;;5074728;28;20406;-73
2022/03/30 05:39:14;;;;;;;38.63;14.70;;;;;;;;;;5074438;28;20462;-72
2022/03/30 05:41:40;;;;;;;38.23;15.10;;;;;;;;;;5074408;28;20469;-69
2022/03/30 05:44:06;;;;;;;35.87;16.80;;;;;;;;;;5074473;28;20414;-70
2022/03/30 05:46:32;;;;;;;34.20;15.53;;;;;;;;;;5074566;28;20452;-67
2022/03/30 05:48:58;;;;;;;40.70;16.17;;;;;;;;;;5074394;28;20420;-68
2022/03/30 05:51:24;;;;;;;31.63;16.20;;;;;;;;;;5074345;28;20760;-67
2022/03/30 05:53:51;;;;;;;30.00;14.73;;;;;;;;;;5074304;28;20426;-69
2022/03/30 05:56:17;;;;;;;30.20;15.77;;;;;;;;;;5073771;28;20410;-70
2022/03/30 05:58:43;;;;;;;37.30;16.57;;;;;;;;;;5074099;28;20412;-67
2022/03/30 06:01:09;;;;;;;28.07;15.27;;;;;;;;;;5073675;28;20544;-67
2022/03/30 06:03:37;;;;;;;42.53;15.03;;;;;;;;;;5072636;28;20422;-68
2022/03/30 06:06:06;;;;;;;27.03;13.87;;;;;;;;;;5073995;28;20380;-67
2022/03/30 06:08:34;;;;;;;25.93;11.50;;;;;;;;;;5073965;28;20413;-69
2022/03/30 06:11:00;;;;;;;25.40;12.00;;;;;;;;;;5072696;28;20447;-72
2022/03/30 06:13:26;;;;;;;25.77;11.27;;;;;;;;;;5073852;28;20421;-67
2022/03/30 06:15:52;;;;;;;20.43;9.97;;;;;;;;;;5074045;28;20402;-67
2022/03/30 06:18:18;;;;;;;22.70;10.07;;;;;;;;;;5073773;28;20505;-66
2022/03/30 06:20:44;;;;;;;23.77;10.33;;;;;;;;;;5073746;28;20841;-67
2022/03/30 06:23:11;;;;;;;23.50;9.43;;;;;;;;;;5073825;28;20402;-66
2022/03/30 06:25:38;;;;;;;24.00;9.73;;;;;;;;;;5073701;28;20422;-68
2022/03/30 06:28:04;;;;;;;17.43;9.50;;;;;;;;;;5073692;28;20377;-69
2022/03/30 06:30:30;;;;;;;22.57;10.17;;;;;;;;;;5072265;28;20833;-68
2022/03/30 06:32:56;;;;;;;22.00;8.73;;;;;;;;;;5073441;28;20501;-69
2022/03/30 06:35:24;;;;;;;21.67;11.33;;;;;;;;;;5073829;28;20441;-67
2022/03/30 06:37:50;;;;;;;17.33;8.93;;;;;;;;;;5073566;28;20471;-66
2022/03/30 06:40:17;;;;;;;29.70;9.57;;;;;;;;;;5073201;28;20956;-67
2022/03/30 06:42:45;;;;;;;22.93;9.17;;;;;;;;;;5073403;28;20413;-67
2022/03/30 06:45:11;;;;;;;20.77;9.83;;;;;;;;;;5072205;28;20426;-67
2022/03/30 06:47:37;;;;;;;19.33;9.00;;;;;;;;;;5073535;28;20882;-66
2022/03/30 06:50:05;;;;;;;18.97;9.27;;;;;;;;;;5073400;28;20740;-67
2022/03/30 06:52:32;;;;;;;22.63;8.90;;;;;;;;;;5073281;28;20406;-67
2022/03/30 06:54:59;;;;;;;28.33;8.37;;;;;;;;;;5073594;28;20402;-68
2022/03/30 06:57:27;;;;;;;27.00;9.07;;;;;;;;;;5073440;28;20480;-68
2022/03/30 06:59:53;;;;;;;20.03;9.10;;;;;;;;;;5073230;28;20421;-68
2022/03/30 07:02:19;;;;;;;20.27;8.70;;;;;;;;;;5073123;28;20497;-69
2022/03/30 07:04:45;;;;;;;17.73;8.47;;;;;;;;;;5071957;28;20408;-67
2022/03/30 07:12:40;;;;;;;26.50;9.77;;;;;;;;;;5073557;28;20405;-71
2022/03/30 07:15:06;;;;;;;13.60;8.20;;;;;;;;;;5077392;28;20414;-67
2022/03/30 07:17:33;;;;;;;35.33;9.47;;;;;;;;;;5077316;28;20413;-67
2022/03/30 07:19:59;;;;;;;22.73;9.53;;;;;;;;;;5077390;28;20402;-68
2022/03/30 07:22:25;;;;;;;22.43;9.97;;;;;;;;;;5077174;28;20461;-68
2022/03/30 07:24:51;;;;;;;30.83;10.63;;;;;;;;;;5077284;28;20398;-67
2022/03/30 07:27:17;;;;;;;27.83;9.30;;;;;;;;;;5077105;28;20770;-67
2022/03/30 07:29:43;;;;;;;17.90;8.80;;;;;;;;;;5077095;28;20425;-69
2022/03/30 07:32:09;;;;;;;23.20;10.00;;;;;;;;;;5077151;28;20765;-68
2022/03/30 07:34:36;;;;;;;37.83;9.53;;;;;;;;;;5077085;28;20463;-68
2022/03/30 07:37:03;;;;;;;20.23;8.73;;;;;;;;;;5077078;28;20949;-67
2022/03/30 07:39:29;;;;;;;21.37;9.87;;;;;;;;;;5076842;28;20862;-68
2022/03/30 07:41:55;;;;;;;29.20;9.87;;;;;;;;;;5076880;28;20472;-66
2022/03/30 07:44:21;;;;;;;35.77;9.37;;;;;;;;;;5076713;28;20414;-67
2022/03/30 07:46:48;;;;;;;31.20;10.00;;;;;;;;;;5076850;28;20406;-65
2022/03/30 07:49:15;;;;;;;30.33;9.00;;;;;;;;;;5076824;28;20835;-66
2022/03/30 07:51:41;;;;;;;28.47;9.23;;;;;;;;;;5075417;28;20913;-66
2022/03/30 07:54:07;;;;;;;24.47;8.83;;;;;;;;;;5076652;28;20405;-65
2022/03/30 07:56:33;;;;;;;28.63;9.07;;;;;;;;;;5076596;28;20373;-66
2022/03/30 07:59:00;;;;;;;25.63;8.90;;;;;;;;;;5076482;28;20499;-67
2022/03/30 08:01:26;;;;;;;21.43;8.40;;;;;;;;;;5076411;28;20607;-67
2022/03/30 08:03:52;;;;;;;29.87;8.40;;;;;;;;;;5076361;28;20410;-67
2022/03/30 08:06:18;;;;;;;30.00;9.17;;;;;;;;;;5076683;28;20410;-67
2022/03/30 08:08:44;;;;;;;33.73;9.40;;;;;;;;;;5076394;28;20390;-67
2022/03/30 08:11:10;;;;;;;18.50;8.80;;;;;;;;;;5076311;28;20740;-67
2022/03/30 08:13:36;;;;;;;24.83;9.00;;;;;;;;;;5076239;28;20485;-67
2022/03/30 08:16:03;;;;;;;20.73;9.43;;;;;;;;;;5076278;28;20947;-67
2022/03/30 08:18:29;;;;;;;15.80;8.73;;;;;;;;;;5076132;28;20410;-67
2022/03/30 08:23:40;;;;;;;21.43;8.90;;;;;;;;;;5076006;28;20416;-66
2022/03/30 08:26:06;;;;;;;23.53;10.27;;;;;;;;;;5076141;28;20413;-66
2022/03/30 08:28:32;;;;;;;18.27;10.13;;;;;;;;;;5075966;28;20453;-66
2022/03/30 08:30:58;;;;;;;33.97;9.43;;;;;;;;;;5075973;28;20501;-66
2022/03/30 08:33:26;;;;;;;24.23;9.97;;;;;;;;;;5074612;28;20429;-66
2022/03/30 08:35:54;;;;;;;27.23;10.40;;;;;;;;;;5075994;28;20409;-66
2022/03/30 08:38:20;;;;;;;29.20;9.90;;;;;;;;;;5074505;28;20913;-66
2022/03/30 08:40:46;;;;;;;18.83;9.37;;;;;;;;;;5075601;28;20629;-66
2022/03/30 08:43:12;;;;;;;20.50;10.40;;;;;;;;;;5075647;28;20886;-66
2022/03/30 08:45:38;;;;;;;26.00;9.80;;;;;;;;;;5075635;28;20391;-66
2022/03/30 08:48:05;;;;;;;28.73;9.53;;;;;;;;;;5074828;28;20525;-67
2022/03/30 08:50:31;;;;;;;27.73;10.37;;;;;;;;;;5075733;28;20437;-67
2022/03/30 08:52:59;;;;;;;32.20;10.17;;;;;;;;;;5075569;28;20406;-67
2022/03/30 08:55:25;;;;;;;31.87;10.27;;;;;;;;;;5075527;28;20414;-67
2022/03/30 08:57:51;;;;;;;29.83;10.53;;;;;;;;;;5075407;28;20414;-67
2022/03/30 09:00:19;;;;;;;26.63;10.13;;;;;;;;;;5075443;28;20410;-67
2022/03/30 09:02:46;;;;;;;23.47;11.10;;;;;;;;;;5075615;28;20425;-67
2022/03/30 09:05:14;;;;;;;24.47;10.70;;;;;;;;;;5075513;28;20402;-67
2022/03/30 09:07:41;;;;;;;23.67;10.93;;;;;;;;;;5075356;28;20398;-67
2022/03/30 09:10:12;;;;;;;27.20;9.40;;;;;;;;;;5075209;28;20838;-67
2022/03/30 09:12:38;;;;;;;17.57;9.70;;;;;;;;;;5075173;28;20439;-67
2022/03/30 09:15:05;;;;;;;20.03;10.57;;;;;;;;;;5075163;28;20821;-67
2022/03/30 09:17:38;;;;;;;23.13;10.30;;;;;;;;;;5075080;28;20399;-67
2022/03/30 09:20:07;;;;;;;20.07;9.67;;;;;;;;;;5075287;28;20401;-67
2022/03/30 09:22:33;;;;;;;31.47;11.03;;;;;;;;;;5074910;28;20843;-67
2022/03/30 09:25:03;;;;;;;23.13;10.60;;;;;;;;;;5075189;28;20791;-67
2022/03/30 09:27:29;;;;;;;26.87;10.57;;;;;;;;;;5075147;28;20400;-67
2022/03/30 09:29:55;;;;;;;22.90;11.23;;;;;;;;;;5074636;28;20900;-67
2022/03/30 09:32:22;;;;;;;21.70;9.60;;;;;;;;;;5074756;28;20410;-67
2022/03/30 09:34:49;;;;;;;21.20;10.33;;;;;;;;;;5074698;28;20442;-67
2022/03/30 09:37:15;;;;;;;23.83;10.57;;;;;;;;;;5074107;28;20411;-67
2022/03/30 09:39:42;;;;;;;26.37;11.57;;;;;;;;;;5074614;28;20540;-67
2022/03/30 09:42:10;;;;;;;19.77;11.00;;;;;;;;;;5074518;28;21044;-67
2022/03/30 09:44:48;;;;;;;32.13;10.47;;;;;;;;;;5073162;28;20814;-67
2022/03/30 09:47:15;;;;;;;22.20;11.67;;;;;;;;;;5074399;28;20414;-67
2022/03/30 09:49:43;;;;;;;28.77;11.20;;;;;;;;;;5074373;28;20406;-68
2022/03/30 09:52:12;;;;;;;32.47;11.23;;;;;;;;;;5074387;28;20460;-67
2022/03/30 09:54:38;;;;;;;27.60;11.13;;;;;;;;;;5073128;28;20418;-67
2022/03/30 09:57:24;;;;;;;25.57;11.00;;;;;;;;;;5074269;28;20464;-66
2022/03/30 10:00:07;;;;;;;41.03;11.40;;;;;;;;;;5072883;28;20928;-66
2022/03/30 10:02:38;;;;;;;33.40;10.93;;;;;;;;;;5072798;28;20478;-68
2022/03/30 10:05:05;;;;;;;28.10;11.50;;;;;;;;;;5074484;28;20436;-67
2022/03/30 10:07:32;;;;;;;27.70;12.00;;;;;;;;;;5074321;28;20434;-68
2022/03/30 10:09:58;;;;;;;21.63;10.70;;;;;;;;;;5074000;28;20484;-67
2022/03/30 10:12:26;;;;;;;33.73;11.70;;;;;;;;;;5074147;28;20432;-68
2022/03/30 10:14:53;;;;;;;23.73;11.23;;;;;;;;;;5073906;28;20489;-69
2022/03/30 10:17:19;;;;;;;19.97;11.43;;;;;;;;;;5073845;28;20424;-68
2022/03/30 10:19:46;;;;;;;30.97;11.80;;;;;;;;;;5073837;28;20869;-69
2022/03/30 10:22:31;;;;;;;27.80;11.70;;;;;;;;;;5074003;28;20469;-71
2022/03/30 10:25:15;;;;;;;23.70;11.57;;;;;;;;;;5073837;28;20394;-70
2022/03/30 10:27:57;;;;;;;21.27;11.40;;;;;;;;;;5073706;28;20397;-69
2022/03/30 10:30:26;;;;;;;30.97;12.07;;;;;;;;;;5073730;28;20412;-66
2022/03/30 10:32:57;;;;;;;31.03;11.83;;;;;;;;;;5073705;28;20402;-66
2022/03/30 10:35:36;;;;;;;33.90;11.90;;;;;;;;;;5073725;28;20801;-66
2022/03/30 10:38:02;;;;;;;32.70;12.17;;;;;;;;;;5073724;28;20394;-66
2022/03/30 10:40:28;;;;;;;25.10;11.00;;;;;;;;;;5072108;28;21002;-68
2022/03/30 10:42:54;;;;;;;24.97;11.03;;;;;;;;;;5073616;28;20417;-66
2022/03/30 10:45:30;;;;;;;26.10;11.07;;;;;;;;;;5073556;28;20418;-67
2022/03/30 10:48:17;;;;;;;20.83;10.37;;;;;;;;;;5072634;28;20425;-66
2022/03/30 10:50:48;;;;;;;23.70;11.50;;;;;;;;;;5073796;28;20406;-67
2022/03/30 10:53:32;;;;;;;22.47;10.43;;;;;;;;;;5073353;28;20414;-67
2022/03/30 10:56:07;;;;;;;22.73;10.70;;;;;;;;;;5072096;28;20854;-68
2022/03/30 10:58:34;;;;;;;29.30;11.80;;;;;;;;;;5073322;28;20409;-67
2022/03/30 11:01:18;;;;;;;26.03;11.70;;;;;;;;;;5073378;28;20549;-67
2022/03/30 11:04:19;;;;;;;23.87;10.70;;;;;;;;;;5073397;28;20414;-66
2022/03/30 11:06:46;;;;;;;21.60;10.63;;;;;;;;;;5011465;28;20439;-66
2022/03/30 11:09:28;;;;;;;20.87;10.53;;;;;;;;;;5061547;28;20421;-67
2022/03/30 11:11:57;;;;;;;24.80;10.80;;;;;;;;;;5073380;28;20402;-68
2022/03/30 11:14:28;;;;;;;28.50;10.50;;;;;;;;;;5073114;28;20450;-66
2022/03/30 11:16:58;;;;;;;17.50;10.60;;;;;;;;;;5073400;28;20441;-67
2022/03/30 11:19:31;;;;;;;26.27;11.33;;;;;;;;;;5073124;28;20410;-67
2022/03/30 11:22:13;;;;;;;21.33;10.27;;;;;;;;;;5072999;28;20514;-67
2022/03/30 11:24:41;;;;;;;29.60;9.77;;;;;;;;;;5073060;28;20414;-67
2022/03/30 11:27:07;;;;;;;30.00;10.43;;;;;;;;;;5073156;28;20409;-68
2022/03/30 11:29:43;;;;;;;19.50;10.10;;;;;;;;;;5072972;28;20755;-68
2022/03/30 11:32:21;;;;;;;23.20;9.13;;;;;;;;;;5073284;28;20447;-68
2022/03/30 11:34:48;;;;;;;27.87;10.33;;;;;;;;;;5073007;28;20414;-68
2022/03/30 11:37:14;;;;;;;25.63;10.27;;;;;;;;;;5073024;28;20401;-66
2022/03/30 11:39:41;;;;;;;26.20;9.90;;;;;;;;;;5072823;28;20471;-67
2022/03/30 11:42:07;;;;;;;20.47;9.20;;;;;;;;;;5073182;28;20462;-68
2022/03/30 11:47:24;;;;;;;21.30;9.07;;;;;;;;;;5073221;28;20436;-68
2022/03/30 11:49:50;;;;;;;23.63;9.80;;;;;;;;;;5073168;28;20459;-68
2022/03/30 11:52:17;;;;;;;18.80;8.60;;;;;;;;;;5072843;28;20489;-68
2022/03/30 11:54:47;;;;;;;22.77;9.47;;;;;;;;;;5072826;28;20928;-68
2022/03/30 11:57:13;;;;;;;16.57;8.40;;;;;;;;;;5072953;28;20397;-68
2022/03/30 11:59:39;;;;;;;20.03;8.77;;;;;;;;;;5074479;28;20903;-68
2022/03/30 12:02:05;;;;;;;23.60;8.87;;;;;;;;;;5076450;28;20472;-68
2022/03/30 12:04:32;;;;;;;16.73;9.00;;;;;;;;;;5076416;28;20402;-68
2022/03/30 12:06:58;;;;;;;21.73;8.90;;;;;;;;;;5076365;28;20406;-68
2022/03/30 12:09:24;;;;;;;17.37;7.83;;;;;;;;;;5076321;28;20731;-69
2022/03/30 12:11:50;;;;;;;14.60;7.07;;;;;;;;;;5076286;28;20456;-69
2022/03/30 12:14:26;;;;;;;19.80;7.63;;;;;;;;;;5074875;28;20936;-69
2022/03/30 12:16:52;;;;;;;21.40;7.67;;;;;;;;;;5076204;28;20471;-68
2022/03/30 12:19:19;;;;;;;22.37;7.47;;;;;;;;;;5076230;28;20398;-70
2022/03/30 12:21:45;;;;;;;25.23;7.50;;;;;;;;;;5076377;28;20465;-68
2022/03/30 12:24:12;;;;;;;17.67;8.53;;;;;;;;;;5076017;28;20739;-68
2022/03/30 12:26:38;;;;;;;14.53;8.23;;;;;;;;;;5076082;28;20453;-68
2022/03/30 12:29:05;;;;;;;27.00;10.40;;;;;;;;;;5075883;28;20901;-69
2022/03/30 12:31:38;;;;;;;18.87;9.33;;;;;;;;;;5075919;28;20429;-69
2022/03/30 12:34:11;;;;;;;20.20;9.40;;;;;;;;;;5075909;28;20453;-69
2022/03/30 12:36:45;;;;;;;28.90;9.80;;;;;;;;;;5075755;28;20399;-68
2022/03/30 12:39:17;;;;;;;19.00;8.40;;;;;;;;;;5075628;28;20511;-68
2022/03/30 12:41:43;;;;;;;19.30;7.93;;;;;;;;;;5075700;28;20530;-67
2022/03/30 12:44:09;;;;;;;24.27;8.20;;;;;;;;;;5074444;28;20913;-67
2022/03/30 12:46:36;;;;;;;14.40;7.67;;;;;;;;;;5075960;28;20402;-67
2022/03/30 12:49:06;;;;;;;19.77;7.73;;;;;;;;;;5075643;28;20420;-67
2022/03/30 12:51:36;;;;;;;24.10;7.63;;;;;;;;;;5075817;28;20406;-64
2022/03/30 12:54:03;;;;;;;22.17;7.23;;;;;;;;;;5075583;28;20769;-64
2022/03/30 12:56:29;;;;;;;31.17;6.90;;;;;;;;;;5075535;28;20414;-64
2022/03/30 12:58:56;;;;;;;14.00;7.27;;;;;;;;;;5075451;28;20750;-65
2022/03/30 13:01:36;;;;;;;7.90;5.37;;;;;;;;;;5075620;28;20475;-64
2022/03/30 13:04:03;;;;;;;24.93;7.33;;;;;;;;;;5075559;28;20456;-64
2022/03/30 13:06:29;;;;;;;18.63;7.50;;;;;;;;;;5075255;28;20774;-64
2022/03/30 13:09:02;;;;;;;24.63;5.83;;;;;;;;;;5075163;28;20399;-66
2022/03/30 13:11:28;;;;;;;16.10;4.87;;;;;;;;;;5074286;28;20502;-65
2022/03/30 13:13:54;;;;;;;18.80;5.67;;;;;;;;;;5075132;28;20958;-65
2022/03/30 13:16:21;;;;;;;16.63;5.60;;;;;;;;;;5075307;28;20486;-64
2022/03/30 13:19:01;;;;;;;14.63;4.70;;;;;;;;;;5074915;28;20402;-64
2022/03/30 13:21:34;;;;;;;8.53;3.90;;;;;;;;;;5074879;28;20520;-64
2022/03/30 13:24:08;;;;;;;14.20;3.60;;;;;;;;;;5074877;28;20413;-65
2022/03/30 13:26:38;;;;;;;9.50;3.77;;;;;;;;;;5074800;28;20481;-65
2022/03/30 13:29:05;;;;;;;14.60;3.70;;;;;;;;;;5074767;28;20415;-65
2022/03/30 13:31:31;;;;;;;9.23;3.30;;;;;;;;;;5074761;28;20493;-65
2022/03/30 13:33:59;;;;;;;12.20;3.40;;;;;;;;;;5074998;28;20453;-65
2022/03/30 13:36:25;;;;;;;16.17;3.53;;;;;;;;;;5074634;28;20432;-65
2022/03/30 13:38:52;;;;;;;13.90;3.57;;;;;;;;;;5074521;28;20398;-65
2022/03/30 13:41:19;;;;;;;13.67;3.83;;;;;;;;;;5074765;28;20457;-65
2022/03/30 13:43:45;;;;;;;12.87;3.23;;;;;;;;;;5074459;28;20472;-65
2022/03/30 13:46:11;;;;;;;12.23;3.93;;;;;;;;;;5074360;28;20541;-64
2022/03/30 13:48:37;;;;;;;17.87;3.80;;;;;;;;;;5074329;28;20415;-66
2022/03/30 13:51:04;;;;;;;17.87;3.10;;;;;;;;;;5074382;28;20902;-65
2022/03/30 13:53:30;;;;;;;17.07;4.10;;;;;;;;;;5074356;28;20493;-65
2022/03/30 13:55:56;;;;;;;13.37;3.40;;;;;;;;;;5074220;28;20403;-65
2022/03/30 13:58:22;;;;;;;14.60;4.90;;;;;;;;;;5073929;28;20481;-64
2022/03/30 14:00:49;;;;;;;25.53;6.40;;;;;;;;;;5073866;28;20878;-65
2022/03/30 14:03:15;;;;;;;16.40;5.17;;;;;;;;;;5074214;28;20408;-66
2022/03/30 14:05:41;;;;;;;14.87;4.10;;;;;;;;;;5074132;28;20395;-65
2022/03/30 14:08:07;;;;;;;14.90;5.73;;;;;;;;;;5072799;28;20964;-65
2022/03/30 14:10:33;;;;;;;12.73;5.43;;;;;;;;;;5073883;28;20895;-65
2022/03/30 14:12:59;;;;;;;17.33;6.23;;;;;;;;;;5073984;28;20407;-65
2022/03/30 14:15:25;;;;;;;16.67;5.10;;;;;;;;;;5073901;28;20914;-66
2022/03/30 14:17:51;;;;;;;11.40;5.90;;;;;;;;;;5073899;28;20415;-66
2022/03/30 14:20:18;;;;;;;16.30;5.50;;;;;;;;;;5073800;28;20403;-66
2022/03/30 14:22:45;;;;;;;20.43;5.80;;;;;;;;;;5073568;28;20903;-66
2022/03/30 14:25:12;;;;;;;21.77;5.33;;;;;;;;;;5074122;28;20392;-66
2022/03/30 14:27:38;;;;;;;18.90;6.30;;;;;;;;;;5073868;28;20415;-66
2022/03/30 14:30:08;;;;;;;13.70;5.03;;;;;;;;;;5073764;28;20472;-66
2022/03/30 14:32:35;;;;;;;26.20;5.60;;;;;;;;;;5073679;28;20886;-66
2022/03/30 14:35:01;;;;;;;17.13;4.43;;;;;;;;;;5073596;28;20460;-66
2022/03/30 14:37:28;;;;;;;12.90;4.40;;;;;;;;;;5073550;28;20850;-66
2022/03/30 14:39:54;;;;;;;7.67;3.70;;;;;;;;;;5073394;28;20480;-64